Kosova — 3EHS4 — position and weather

sailwx.info

Track history (hours):
 
Tides and Currents Weather Stations Pressure Air Temp Water Temp Dewpoint Dewpoint Depression Visibility Wind Speed Wind Dir Waves Ship Positions

Kosova

Last reported at 2017-Sep-10 21:58 UTC. Time now 2017-Sep-19 13:24 UTC.
Position N 32°40' E 014°15'.
Warning: this ship's position is 8 days out of date.

Length 158 m; draft 9.9 m.

Type: Ship (hazmat cat A). MMSI: 356306000.

Date/timePositionNaut miles runAvg speedWind from/ knotsBaromVisibWave heightAir tempDewpointWater temp
2017-Sep-10 21:58N 32°40' E 014°15'0 0.0
2017-Sep-10 21:25N 32°40' E 014°15'0 0.0
2017-Sep-10 20:58N 32°40' E 014°15'0 0.0
2017-Sep-10 20:28N 32°40' E 014°15'0 0.0
2017-Sep-10 19:58N 32°40' E 014°15'0 0.0
2017-Sep-10 19:31N 32°40' E 014°15'0 0.0
2017-Sep-10 19:01N 32°40' E 014°15'0 0.0
2017-Sep-10 18:27N 32°40' E 014°15'0 0.0
2017-Sep-10 18:00N 32°40' E 014°15'0 0.0
2017-Sep-10 17:30N 32°40' E 014°15'0 0.0
2017-Sep-10 16:57N 32°40' E 014°15'0 0.0
2017-Sep-10 16:00N 32°40' E 014°15'0 0.0
2017-Sep-10 15:30N 32°40' E 014°15'0 0.0
2017-Sep-10 14:51N 32°40' E 014°15'0 0.0
2017-Sep-10 14:00N 32°40' E 014°15'0 0.0
2017-Sep-10 13:30N 32°40' E 014°15'0 0.0
2017-Sep-10 13:00N 32°40' E 014°15'0 0.0
2017-Sep-10 11:27N 32°40' E 014°15'0 0.0
2017-Sep-10 10:36N 32°40' E 014°15'0 0.0
2017-Sep-10 10:27N 32°40' E 014°15'0 0.0
2017-Sep-10 09:57N 32°40' E 014°15'0 0.0
2017-Sep-10 09:27N 32°40' E 014°15'0 0.0
2017-Sep-10 09:00N 32°40' E 014°15'0 0.0
2017-Sep-10 08:30N 32°40' E 014°15'0 0.0
2017-Sep-10 08:00N 32°40' E 014°15'0 0.0
2017-Sep-10 07:30N 32°40' E 014°15'0 0.0
2017-Sep-10 07:00N 32°40' E 014°15'0 0.0
2017-Sep-10 06:30N 32°40' E 014°15'0 0.0
2017-Sep-10 04:00N 32°40' E 014°15'0 0.0
2017-Sep-10 03:30N 32°40' E 014°15'1 0.1
2017-Sep-09 17:19N 32°41' E 014°16'9 5.7
2017-Sep-09 15:40N 32°39' E 014°27'215.1
2017-Sep-09 15:30N 32°38' E 014°30'915.3
2017-Sep-09 14:55N 32°35' E 014°40'  
2017-Sep-04 17:10N 36°31' E 023°30'213.7
2017-Sep-04 17:00N 36°33' E 023°32'714.2
2017-Sep-04 16:30N 36°39' E 023°36'714.2
2017-Sep-04 16:00N 36°45' E 023°41'713.7
2017-Sep-04 15:30N 36°52' E 023°45'713.8
2017-Sep-04 15:00N 36°58' E 023°48'714.0
2017-Sep-04 14:31N 37°04' E 023°52'714.0
2017-Sep-04 14:01N 37°10' E 023°56'814.0
2017-Sep-04 13:28N 37°17' E 024°00'613.8
2017-Sep-04 13:00N 37°23' E 024°03'2213.6
2017-Sep-04 11:24N 37°43' E 024°16'913.5
2017-Sep-04 10:45N 37°49' E 024°24'14714.3
2017-Sep-04 00:28N 39°57' E 025°54'714.1
2017-Sep-04 00:00N 40°01' E 026°02'714.1
2017-Sep-03 23:30N 40°02' E 026°11'9512.6
2017-Sep-03 15:57N 40°49' E 027°59'35 2.3
2017-Sep-03 00:35N 40°56' E 028°44'114.5
2017-Sep-03 00:30N 40°56' E 028°46'4 5.9
2017-Sep-02 23:45N 40°56' E 028°52'0 0.3
2017-Sep-02 23:19N 40°56' E 028°52'2 7.4
2017-Sep-02 23:01N 40°54' E 028°53'714.0
2017-Sep-02 22:30N 40°50' E 029°00'714.7
2017-Sep-02 22:00N 40°47' E 029°09'714.5
2017-Sep-02 21:31N 40°45' E 029°18'166 4.7
2017-Sep-01 09:53N 39°51' E 025°53'512.7
2017-Sep-01 09:28N 39°46' E 025°51'612.5
2017-Sep-01 08:59N 39°40' E 025°50'714.1
2017-Sep-01 08:30N 39°34' E 025°48'  
Track history (hours):
 
Tides and Currents Weather Stations Pressure Air Temp Water Temp Dewpoint Dewpoint Depression Visibility Wind Speed Wind Dir Waves Ship Positions

Kosova

Last reported at 2017-Sep-10 21:58 UTC. Time now 2017-Sep-19 13:24 UTC.
Position N 32°40' E 014°15'.
Warning: this ship's position is 8 days out of date.

Length 158 m; draft 9.9 m.

Type: Ship (hazmat cat A). MMSI: 356306000.

Date/timePositionNaut miles runAvg speedWind from/ knotsBaromVisibWave heightAir tempDewpointWater temp
2017-Sep-10 21:58N 32°40' E 014°15'0 0.0
2017-Sep-10 21:25N 32°40' E 014°15'0 0.0
2017-Sep-10 20:58N 32°40' E 014°15'0 0.0
2017-Sep-10 20:28N 32°40' E 014°15'0 0.0
2017-Sep-10 19:58N 32°40' E 014°15'0 0.0
2017-Sep-10 19:31N 32°40' E 014°15'0 0.0
2017-Sep-10 19:01N 32°40' E 014°15'0 0.0
2017-Sep-10 18:27N 32°40' E 014°15'0 0.0
2017-Sep-10 18:00N 32°40' E 014°15'0 0.0
2017-Sep-10 17:30N 32°40' E 014°15'0 0.0
2017-Sep-10 16:57N 32°40' E 014°15'0 0.0
2017-Sep-10 16:00N 32°40' E 014°15'0 0.0
2017-Sep-10 15:30N 32°40' E 014°15'0 0.0
2017-Sep-10 14:51N 32°40' E 014°15'0 0.0
2017-Sep-10 14:00N 32°40' E 014°15'0 0.0
2017-Sep-10 13:30N 32°40' E 014°15'0 0.0
2017-Sep-10 13:00N 32°40' E 014°15'0 0.0
2017-Sep-10 11:27N 32°40' E 014°15'0 0.0
2017-Sep-10 10:36N 32°40' E 014°15'0 0.0
2017-Sep-10 10:27N 32°40' E 014°15'0 0.0
2017-Sep-10 09:57N 32°40' E 014°15'0 0.0
2017-Sep-10 09:27N 32°40' E 014°15'0 0.0
2017-Sep-10 09:00N 32°40' E 014°15'0 0.0
2017-Sep-10 08:30N 32°40' E 014°15'0 0.0
2017-Sep-10 08:00N 32°40' E 014°15'0 0.0
2017-Sep-10 07:30N 32°40' E 014°15'0 0.0
2017-Sep-10 07:00N 32°40' E 014°15'0 0.0
2017-Sep-10 06:30N 32°40' E 014°15'0 0.0
2017-Sep-10 04:00N 32°40' E 014°15'0 0.0
2017-Sep-10 03:30N 32°40' E 014°15'1 0.1
2017-Sep-09 17:19N 32°41' E 014°16'9 5.7
2017-Sep-09 15:40N 32°39' E 014°27'215.1
2017-Sep-09 15:30N 32°38' E 014°30'915.3
2017-Sep-09 14:55N 32°35' E 014°40'  
2017-Sep-04 17:10N 36°31' E 023°30'213.7
2017-Sep-04 17:00N 36°33' E 023°32'714.2
2017-Sep-04 16:30N 36°39' E 023°36'714.2
2017-Sep-04 16:00N 36°45' E 023°41'713.7
2017-Sep-04 15:30N 36°52' E 023°45'713.8
2017-Sep-04 15:00N 36°58' E 023°48'714.0
2017-Sep-04 14:31N 37°04' E 023°52'714.0
2017-Sep-04 14:01N 37°10' E 023°56'814.0
2017-Sep-04 13:28N 37°17' E 024°00'613.8
2017-Sep-04 13:00N 37°23' E 024°03'2213.6
2017-Sep-04 11:24N 37°43' E 024°16'913.5
2017-Sep-04 10:45N 37°49' E 024°24'14714.3
2017-Sep-04 00:28N 39°57' E 025°54'714.1
2017-Sep-04 00:00N 40°01' E 026°02'714.1
2017-Sep-03 23:30N 40°02' E 026°11'9512.6
2017-Sep-03 15:57N 40°49' E 027°59'35 2.3
2017-Sep-03 00:35N 40°56' E 028°44'114.5
2017-Sep-03 00:30N 40°56' E 028°46'4 5.9
2017-Sep-02 23:45N 40°56' E 028°52'0 0.3
2017-Sep-02 23:19N 40°56' E 028°52'2 7.4
2017-Sep-02 23:01N 40°54' E 028°53'714.0
2017-Sep-02 22:30N 40°50' E 029°00'714.7
2017-Sep-02 22:00N 40°47' E 029°09'714.5
2017-Sep-02 21:31N 40°45' E 029°18'166 4.7
2017-Sep-01 09:53N 39°51' E 025°53'512.7
2017-Sep-01 09:28N 39°46' E 025°51'612.5
2017-Sep-01 08:59N 39°40' E 025°50'714.1
2017-Sep-01 08:30N 39°34' E 025°48'  

Dump ship's entire track history